createdAt,value
2023-11-02T00:01:11.842Z,4.23
2023-11-02T00:12:03.569Z,3.43
2023-11-02T00:22:09.627Z,5.57
2023-11-02T00:32:12.422Z,7.17
2023-11-02T00:42:19.919Z,7.20
2023-11-02T00:52:24.187Z,5.10
2023-11-02T01:02:35.523Z,3.57
2023-11-02T01:12:40.090Z,7.17
2023-11-02T01:23:04.538Z,4.27
2023-11-02T01:33:30.081Z,5.47
2023-11-02T01:43:41.270Z,4.33
2023-11-02T01:53:52.264Z,3.77
2023-11-02T02:04:06.360Z,6.83
2023-11-02T02:14:20.394Z,5.20
2023-11-02T02:24:28.713Z,4.83
2023-11-02T02:34:56.296Z,3.33
2023-11-02T02:45:03.641Z,7.23
2023-11-02T02:55:11.048Z,4.97
2023-11-02T03:05:19.300Z,3.37
2023-11-02T03:15:29.510Z,3.43
2023-11-02T03:25:48.752Z,4.70
2023-11-02T03:36:00.935Z,6.17
2023-11-02T03:46:17.583Z,2.07
2023-11-02T03:56:32.391Z,5.43
2023-11-02T04:06:45.589Z,2.87
2023-11-02T04:16:49.756Z,2.90
2023-11-02T04:26:52.690Z,2.33
2023-11-02T04:36:57.308Z,3.90
2023-11-02T04:47:00.175Z,5.60
2023-11-02T04:57:05.370Z,3.30
2023-11-02T05:07:08.297Z,5.10
2023-11-02T05:17:12.507Z,6.43
2023-11-02T05:27:15.351Z,4.87
2023-11-02T05:37:19.489Z,2.43
2023-11-02T05:47:22.270Z,3.37
2023-11-02T05:57:27.069Z,4.70
2023-11-02T06:07:29.866Z,6.67
2023-11-02T06:17:34.162Z,3.40
2023-11-02T06:27:37.018Z,5.90
2023-11-02T06:38:00.004Z,2.80
2023-11-02T06:48:03.450Z,4.63
2023-11-02T06:58:07.734Z,2.43
2023-11-02T07:08:10.606Z,1.70
2023-11-02T07:18:15.121Z,1.73
2023-11-02T07:28:17.945Z,2.40
2023-11-02T07:38:22.168Z,1.57
2023-11-02T07:48:25.135Z,1.50
2023-11-02T07:58:29.287Z,1.53
2023-11-02T08:08:32.107Z,1.83
2023-11-02T08:18:36.542Z,1.90
2023-11-02T08:28:39.727Z,4.13
2023-11-02T08:38:43.970Z,2.60
2023-11-02T08:48:47.063Z,1.97
2023-11-02T08:58:52.829Z,2.63
2023-11-02T09:08:57.925Z,1.27
2023-11-02T09:19:02.200Z,2.63
2023-11-02T09:29:05.114Z,2.25
2023-11-02T09:39:09.903Z,1.10
2023-11-02T09:49:12.846Z,4.05
2023-11-02T09:59:18.770Z,4.45
2023-11-02T10:09:21.617Z,4.32
2023-11-02T10:19:26.008Z,3.35
2023-11-02T10:29:29.310Z,5.35
2023-11-02T10:39:33.749Z,6.68
2023-11-02T10:49:38.566Z,5.32
2023-11-02T10:59:44.996Z,6.80
2023-11-02T11:09:50.719Z,9.45
2023-11-02T11:19:56.183Z,4.32
2023-11-02T11:30:00.989Z,4.68
2023-11-02T11:40:09.120Z,8.25
2023-11-02T11:50:12.064Z,8.45
2023-11-02T12:00:17.577Z,5.13
2023-11-02T12:10:23.850Z,4.13
2023-11-02T12:20:39.852Z,8.85
2023-11-02T12:30:44.600Z,8.88
2023-11-02T12:41:09.932Z,9.13
2023-11-02T12:51:18.509Z,6.93
2023-11-02T13:01:25.640Z,6.13
2023-11-02T13:11:28.509Z,6.50
2023-11-02T13:21:32.814Z,8.30
2023-11-02T13:31:36.018Z,6.60
2023-11-02T13:41:41.602Z,9.13
2023-11-02T13:51:53.115Z,7.40
2023-11-02T14:02:00.916Z,9.95
2023-11-02T14:12:05.877Z,10.52
2023-11-02T14:22:25.122Z,9.32
2023-11-02T14:32:28.508Z,9.93
2023-11-02T15:54:03.557Z,10.95
2023-11-02T16:04:06.768Z,8.85
2023-11-02T16:14:14.036Z,9.82
2023-11-02T16:24:17.986Z,12.40
2023-11-02T16:34:30.771Z,9.35
2023-11-02T16:44:38.780Z,11.57
2023-11-02T16:54:43.119Z,11.13
2023-11-02T17:04:46.202Z,14.07
2023-11-02T17:14:50.503Z,10.10
2023-11-02T17:24:53.991Z,10.07
2023-11-02T17:34:58.228Z,10.37
2023-11-02T17:45:01.104Z,7.78
2023-11-02T17:55:05.887Z,9.97
2023-11-02T18:05:09.288Z,12.70
2023-11-02T18:15:13.458Z,10.93
2023-11-02T18:25:17.244Z,8.20
2023-11-02T18:35:21.965Z,9.90
2023-11-02T18:45:25.239Z,8.68
2023-11-02T18:55:31.943Z,8.00
2023-11-02T19:05:36.901Z,6.75
2023-11-02T19:15:42.631Z,8.90
2023-11-02T19:25:48.308Z,8.25
2023-11-02T19:35:52.906Z,7.18
2023-11-02T19:45:58.567Z,9.95
2023-11-02T19:56:05.607Z,12.93
2023-11-02T20:06:11.384Z,7.65
2023-11-02T20:16:16.055Z,8.73
2023-11-02T20:26:18.949Z,11.18
2023-11-02T20:36:26.148Z,9.00
2023-11-02T20:46:28.998Z,11.82
2023-11-02T20:56:33.768Z,9.27
2023-11-02T21:06:38.006Z,9.75
2023-11-02T21:16:45.993Z,12.27
2023-11-02T21:26:49.650Z,12.20
2023-11-02T21:36:54.150Z,13.27
2023-11-02T21:46:57.173Z,8.23
2023-11-02T21:57:01.901Z,12.47
2023-11-02T22:07:05.145Z,9.97
2023-11-02T22:17:09.429Z,9.83
2023-11-02T22:27:12.467Z,8.98
2023-11-02T22:37:17.267Z,10.13
2023-11-02T22:47:20.503Z,7.63
2023-11-02T22:57:24.882Z,10.57
2023-11-02T23:07:27.711Z,10.07
2023-11-02T23:17:32.357Z,10.05
2023-11-02T23:27:35.483Z,10.20
2023-11-02T23:37:40.338Z,10.37
2023-11-02T23:47:43.279Z,6.43
2023-11-02T23:57:47.772Z,7.23
